Mir — UFPV — position and weather

sailwx.info

Track history (hours):
 
Tides and Currents Weather Stations Pressure Air Temp Water Temp Dewpoint Dewpoint Depression Visibility Wind Speed Wind Dir Waves Ship Positions

Mir (Russia)

Last reported at 2017-Jul-24 00:30 UTC. Time now 2017-Jul-24 00:40 UTC.
Position N 59°37' E 021°09'.

Length 109 m; draft 6.4 m.

Type: Sailing vessel. MMSI: 273133800.

Date/timePositionNaut miles runAvg speedWind from/ knotsBaromVisibWave heightAir tempDewpointWater temp
2017-Jul-24 00:30N 59°37' E 021°09'0 0.4
2017-Jul-24 00:00N 59°37' E 021°09'0 0.4
2017-Jul-23 23:30N 59°38' E 021°09'0 0.4
2017-Jul-23 23:00N 59°38' E 021°09'0 0.4
2017-Jul-23 22:30N 59°38' E 021°09'0 0.4
2017-Jul-23 22:00N 59°38' E 021°10'1 2.5
2017-Jul-23 21:30N 59°39' E 021°11'2 4.4
2017-Jul-23 21:01N 59°41' E 021°14'3 5.6
2017-Jul-23 20:30N 59°42' E 021°19'4 7.9
2017-Jul-23 20:01N 59°46' E 021°21'4 8.0
2017-Jul-23 19:30N 59°50' E 021°22'4 8.6
2017-Jul-23 19:01N 59°52' E 021°29'4 8.5
2017-Jul-23 18:31N 59°55' E 021°36'4 8.5
2017-Jul-23 18:01N 59°58' E 021°41'4 8.7
2017-Jul-23 17:30N 60°02' E 021°41'4 8.9
2017-Jul-23 17:00N 60°07' E 021°41'5 9.1
2017-Jul-23 16:31N 60°11' E 021°42'3 6.3
2017-Jul-23 16:00N 60°14' E 021°47'4 8.0
2017-Jul-23 15:30N 60°15' E 021°54'4 7.6
2017-Jul-23 15:00N 60°17' E 022°01'4 8.0
2017-Jul-23 14:31N 60°21' E 022°05'3 5.0
2017-Jul-23 14:01N 60°23' E 022°07'2 4.3
2017-Jul-23 13:30N 60°25' E 022°08'1 2.8
2017-Jul-23 13:00N 60°25' E 022°11'2 3.4
2017-Jul-23 12:30N 60°26' E 022°14'0 0.2
2017-Jul-23 11:58N 60°26' E 022°14'0 0.0
2017-Jul-23 11:28N 60°26' E 022°14'0 0.0
2017-Jul-23 10:58N 60°26' E 022°14'0 0.0
2017-Jul-23 10:28N 60°26' E 022°14'0 0.0
2017-Jul-23 09:58N 60°26' E 022°14'0 0.0
2017-Jul-23 09:28N 60°26' E 022°14'0 0.0
2017-Jul-23 08:58N 60°26' E 022°14'0 0.0
2017-Jul-23 08:28N 60°26' E 022°14'0 0.0
2017-Jul-23 07:58N 60°26' E 022°14'0 0.0
2017-Jul-23 07:28N 60°26' E 022°14'0 0.0
2017-Jul-23 06:53N 60°26' E 022°14'0 0.0
2017-Jul-23 06:28N 60°26' E 022°14'0 0.0
2017-Jul-23 05:58N 60°26' E 022°14'0 0.0
2017-Jul-23 05:28N 60°26' E 022°14'0 0.0
2017-Jul-23 04:58N 60°26' E 022°14'0 0.0
2017-Jul-23 04:28N 60°26' E 022°14'0 0.0
2017-Jul-23 03:58N 60°26' E 022°14'0 0.0
2017-Jul-23 03:28N 60°26' E 022°14'0 0.0
2017-Jul-23 02:58N 60°26' E 022°14'0 0.0
2017-Jul-23 02:28N 60°26' E 022°14'0 0.0
2017-Jul-23 01:58N 60°26' E 022°14'0 0.0
2017-Jul-23 01:28N 60°26' E 022°14'0 0.0
2017-Jul-23 00:58N 60°26' E 022°14'0 0.0
2017-Jul-23 00:28N 60°26' E 022°14'0 0.0
2017-Jul-22 23:58N 60°26' E 022°14'0 0.0
2017-Jul-22 23:28N 60°26' E 022°14'0 0.0
2017-Jul-22 22:58N 60°26' E 022°14'0 0.0
2017-Jul-22 22:28N 60°26' E 022°14'0 0.0
2017-Jul-22 21:58N 60°26' E 022°14'0 0.0
2017-Jul-22 21:28N 60°26' E 022°14'0 0.0
2017-Jul-22 21:00N 60°26' E 022°14'0 0.0
2017-Jul-22 20:30N 60°26' E 022°14'0 0.0
2017-Jul-22 20:00N 60°26' E 022°14'0 0.0
2017-Jul-22 19:29N 60°26' E 022°14'0 0.0
2017-Jul-22 18:58N 60°26' E 022°14'0 0.0
2017-Jul-22 18:28N 60°26' E 022°14'0 0.0
2017-Jul-22 17:58N 60°26' E 022°14'0 0.0
2017-Jul-22 17:28N 60°26' E 022°14'0 0.0
2017-Jul-22 16:58N 60°26' E 022°14'0 0.0
2017-Jul-22 16:28N 60°26' E 022°14'0 0.0
2017-Jul-22 15:58N 60°26' E 022°14'0 0.0
2017-Jul-22 15:28N 60°26' E 022°14'0 0.0
2017-Jul-22 14:58N 60°26' E 022°14'0 0.0
2017-Jul-22 13:58N 60°26' E 022°14'0 0.0
2017-Jul-22 13:28N 60°26' E 022°14'0 0.0
2017-Jul-22 12:58N 60°26' E 022°14'0 0.0
2017-Jul-22 12:28N 60°26' E 022°14'0 0.0
2017-Jul-22 11:58N 60°26' E 022°14'0 0.0
2017-Jul-22 11:28N 60°26' E 022°14'0 0.0
2017-Jul-22 10:58N 60°26' E 022°14'0 0.0
2017-Jul-22 10:28N 60°26' E 022°14'0 0.0
2017-Jul-22 09:58N 60°26' E 022°14'0 0.0
2017-Jul-22 09:28N 60°26' E 022°14'0 0.0
2017-Jul-22 08:58N 60°26' E 022°14'0 0.0
2017-Jul-22 08:28N 60°26' E 022°14'0 0.0
2017-Jul-22 07:58N 60°26' E 022°14'0 0.0
2017-Jul-22 07:28N 60°26' E 022°14'0 0.0
2017-Jul-22 06:58N 60°26' E 022°14'0 0.0
2017-Jul-22 06:28N 60°26' E 022°14'0 0.0
2017-Jul-22 05:58N 60°26' E 022°14'0 0.0
2017-Jul-22 05:28N 60°26' E 022°14'0 0.0
2017-Jul-22 04:58N 60°26' E 022°14'0 0.0
2017-Jul-22 04:28N 60°26' E 022°14'0 0.0
2017-Jul-22 03:58N 60°26' E 022°14'0 0.0
2017-Jul-22 03:28N 60°26' E 022°14'0 0.0
2017-Jul-22 02:58N 60°26' E 022°14'0 0.0
2017-Jul-22 02:28N 60°26' E 022°14'0 0.0
2017-Jul-22 01:58N 60°26' E 022°14'0 0.0
2017-Jul-22 01:28N 60°26' E 022°14'0 0.0
2017-Jul-22 00:58N 60°26' E 022°14'0 0.0
2017-Jul-22 00:28N 60°26' E 022°14'0 0.0
2017-Jul-21 23:58N 60°26' E 022°14'0 0.0
2017-Jul-21 23:28N 60°26' E 022°14'0 0.0
2017-Jul-21 22:58N 60°26' E 022°14'0 0.0
2017-Jul-21 22:28N 60°26' E 022°14'0 0.0
2017-Jul-21 21:58N 60°26' E 022°14'0 0.0
2017-Jul-21 21:28N 60°26' E 022°14'0 0.0
2017-Jul-21 20:58N 60°26' E 022°14'0 0.0
2017-Jul-21 20:28N 60°26' E 022°14'0 0.0
2017-Jul-21 19:58N 60°26' E 022°14'0 0.0
2017-Jul-21 19:28N 60°26' E 022°14'0 0.0
2017-Jul-21 18:58N 60°26' E 022°14'0 0.0
2017-Jul-21 18:28N 60°26' E 022°14'0 0.0
2017-Jul-21 17:58N 60°26' E 022°14'0 0.0
2017-Jul-21 17:28N 60°26' E 022°14'0 0.0
2017-Jul-21 16:58N 60°26' E 022°14'0 0.0
2017-Jul-21 16:28N 60°26' E 022°14'0 0.0
2017-Jul-21 15:58N 60°26' E 022°14'0 0.0
2017-Jul-21 15:28N 60°26' E 022°14'0 0.0
2017-Jul-21 14:58N 60°26' E 022°14'0 0.0
2017-Jul-21 14:28N 60°26' E 022°14'0 0.0
2017-Jul-21 13:58N 60°26' E 022°14'0 0.0
2017-Jul-21 13:28N 60°26' E 022°14'0 0.0
2017-Jul-21 12:58N 60°26' E 022°14'0 0.0
2017-Jul-21 12:28N 60°26' E 022°14'0 0.0
2017-Jul-21 12:01N 60°26' E 022°14'0 0.0
2017-Jul-21 11:28N 60°26' E 022°14'0 0.0
2017-Jul-21 10:58N 60°26' E 022°14'0 0.0
2017-Jul-21 10:31N 60°26' E 022°14'0 0.0
2017-Jul-21 09:58N 60°26' E 022°14'0 0.0
2017-Jul-21 09:31N 60°26' E 022°14'0 0.0
2017-Jul-21 09:01N 60°26' E 022°14'0 0.0
2017-Jul-21 08:31N 60°26' E 022°14'0 0.0
2017-Jul-21 08:01N 60°26' E 022°14'0 0.0
2017-Jul-21 07:30N 60°26' E 022°14'0 0.0
2017-Jul-21 07:00N 60°26' E 022°14'0 0.0
2017-Jul-21 06:30N 60°26' E 022°14'0 0.0
2017-Jul-21 06:00N 60°26' E 022°14'0 0.0
2017-Jul-21 05:30N 60°26' E 022°14'0 0.0
2017-Jul-21 05:00N 60°26' E 022°14'0 0.0
2017-Jul-21 04:30N 60°26' E 022°14'0 0.0
2017-Jul-21 04:00N 60°26' E 022°14'0 0.0
2017-Jul-21 03:30N 60°26' E 022°14'0 0.0
2017-Jul-21 03:00N 60°26' E 022°14'0 0.0
2017-Jul-21 02:30N 60°26' E 022°14'0 0.0
2017-Jul-21 02:00N 60°26' E 022°14'0 0.0
2017-Jul-21 01:30N 60°26' E 022°14'0 0.0
2017-Jul-21 01:00N 60°26' E 022°14'0 0.0
2017-Jul-21 00:30N 60°26' E 022°14'0 0.0
2017-Jul-21 00:00N 60°26' E 022°14'0 0.0
2017-Jul-20 23:30N 60°26' E 022°14'0 0.0
2017-Jul-20 23:00N 60°26' E 022°14'0 0.0
2017-Jul-20 22:30N 60°26' E 022°14'0 0.0
2017-Jul-20 22:00N 60°26' E 022°14'0 0.0
2017-Jul-20 21:30N 60°26' E 022°14'0 0.0
2017-Jul-20 20:56N 60°26' E 022°14'0 0.0
2017-Jul-20 20:29N 60°26' E 022°14'0 0.0
2017-Jul-20 20:00N 60°26' E 022°14'0 0.0
2017-Jul-20 19:27N 60°26' E 022°14'0 0.0
2017-Jul-20 18:57N 60°26' E 022°14'0 0.0
2017-Jul-20 18:30N 60°26' E 022°14'0 0.0
2017-Jul-20 18:00N 60°26' E 022°14'0 0.0
2017-Jul-20 17:30N 60°26' E 022°14'0 0.0
2017-Jul-20 17:00N 60°26' E 022°14'0 0.0
2017-Jul-20 16:28N 60°26' E 022°14'0 0.0
2017-Jul-20 16:00N 60°26' E 022°14'0 0.0
2017-Jul-20 15:30N 60°26' E 022°14'0 0.0
2017-Jul-20 15:00N 60°26' E 022°14'0 0.0
2017-Jul-20 14:00N 60°26' E 022°14'0 0.0
2017-Jul-20 13:30N 60°26' E 022°14'0 0.0
2017-Jul-20 13:00N 60°26' E 022°14'0 0.0
2017-Jul-20 12:30N 60°26' E 022°14'0 0.0
2017-Jul-20 12:00N 60°26' E 022°14'0 0.0
2017-Jul-20 11:30N 60°26' E 022°14'0 0.0
2017-Jul-20 11:00N 60°26' E 022°14'0 0.0
2017-Jul-20 10:30N 60°26' E 022°14'0 0.0
2017-Jul-20 10:00N 60°26' E 022°14'0 0.0
2017-Jul-20 09:30N 60°26' E 022°14'0 0.0
2017-Jul-20 09:00N 60°26' E 022°14'0 0.0
2017-Jul-20 08:30N 60°26' E 022°14'0 0.0
2017-Jul-20 08:00N 60°26' E 022°14'0 0.0
2017-Jul-20 07:30N 60°26' E 022°14'0 0.0
2017-Jul-20 07:00N 60°26' E 022°14'0 0.0
2017-Jul-20 06:30N 60°26' E 022°14'0 0.0
2017-Jul-20 06:00N 60°26' E 022°14'0 0.0
2017-Jul-20 05:30N 60°26' E 022°14'0 0.0
2017-Jul-20 05:00N 60°26' E 022°14'0 0.0
2017-Jul-20 04:30N 60°26' E 022°14'0 0.0
2017-Jul-20 04:00N 60°26' E 022°14'0 0.0
2017-Jul-20 03:30N 60°26' E 022°14'0 0.0
2017-Jul-20 03:00N 60°26' E 022°14'0 0.0
2017-Jul-20 02:30N 60°26' E 022°14'0 0.0
2017-Jul-20 02:00N 60°26' E 022°14'0 0.0
2017-Jul-20 01:24N 60°26' E 022°14'0 0.0
2017-Jul-20 01:00N 60°26' E 022°14'0 0.0
2017-Jul-20 00:30N 60°26' E 022°14'0 0.0
2017-Jul-20 00:00N 60°26' E 022°14'0 0.0
2017-Jul-19 23:21N 60°26' E 022°14'0 0.0
2017-Jul-19 23:00N 60°26' E 022°14'0 0.0
2017-Jul-19 22:30N 60°26' E 022°14'0 0.0
2017-Jul-19 22:00N 60°26' E 022°14'0 0.0
2017-Jul-19 21:30N 60°26' E 022°14'0 0.3
2017-Jul-19 21:01N 60°26' E 022°14'1 1.3
2017-Jul-19 20:30N 60°26' E 022°12'1 2.5
2017-Jul-19 20:00N 60°25' E 022°10'2 3.1
2017-Jul-19 19:30N 60°25' E 022°08'2 3.3
2017-Jul-19 19:00N 60°23' E 022°07'2 4.1
2017-Jul-19 18:31N 60°21' E 022°05'2 3.6
2017-Jul-19 18:00N 60°19' E 022°03'2 4.9
2017-Jul-19 17:30N 60°17' E 022°01'4 8.2
2017-Jul-19 17:00N 60°16' E 021°54'4 8.6
2017-Jul-19 16:31N 60°14' E 021°46'3 6.8
2017-Jul-19 16:00N 60°11' E 021°42'4 7.2
2017-Jul-19 15:30N 60°08' E 021°41'3 7.0
2017-Jul-19 15:01N 60°04' E 021°41'4 7.5
2017-Jul-19 14:30N 60°00' E 021°42'4 8.0
2017-Jul-19 14:01N 59°57' E 021°40'4 8.8
2017-Jul-19 13:31N 59°54' E 021°33'4 8.9
2017-Jul-19 13:00N 59°51' E 021°26'4 7.8
2017-Jul-19 12:31N 59°48' E 021°21'3 6.6
2017-Jul-19 12:00N 59°45' E 021°21'3 5.9
2017-Jul-19 11:31N 59°42' E 021°20'2 4.3
2017-Jul-19 11:01N 59°40' E 021°20'2 4.5
2017-Jul-19 10:31N 59°38' E 021°20'2 4.4
2017-Jul-19 10:00N 59°36' E 021°20'2 4.2
2017-Jul-19 09:30N 59°33' E 021°20'2 3.8
2017-Jul-19 09:01N 59°32' E 021°20'2 3.6
2017-Jul-19 08:30N 59°30' E 021°20'2 3.7
2017-Jul-19 08:01N 59°28' E 021°21'2 3.6
2017-Jul-19 07:31N 59°26' E 021°21'2 3.7
2017-Jul-19 07:01N 59°26' E 021°24'2 4.2
2017-Jul-19 06:30N 59°26' E 021°28'2 4.2
2017-Jul-19 06:00N 59°26' E 021°33'2 4.2
2017-Jul-19 05:31N 59°26' E 021°37'2 3.9
2017-Jul-19 05:01N 59°26' E 021°41'3 5.5
2017-Jul-19 04:31N 59°26' E 021°46'3 6.4
2017-Jul-19 04:01N 59°26' E 021°52'4 7.0
2017-Jul-19 03:30N 59°26' E 021°59'4 7.1
2017-Jul-19 03:00N 59°27' E 022°06'4 7.2
2017-Jul-19 02:30N 59°28' E 022°13'3 6.9
2017-Jul-19 02:00N 59°28' E 022°20'3 7.0
2017-Jul-19 01:31N 59°30' E 022°26'3 6.9
2017-Jul-19 01:00N 59°31' E 022°32'3 7.0
2017-Jul-19 00:31N 59°32' E 022°39'4 7.0
2017-Jul-19 00:00N 59°33' E 022°46'3 7.0
2017-Jul-18 23:30N 59°34' E 022°52'3 7.0
2017-Jul-18 23:01N 59°35' E 022°59'3 7.0
2017-Jul-18 22:30N 59°36' E 023°06'3 7.0
2017-Jul-18 22:01N 59°37' E 023°12'4 7.0
2017-Jul-18 21:30N 59°38' E 023°19'4 7.0
2017-Jul-18 21:00N 59°39' E 023°26'4 7.6
2017-Jul-18 20:30N 59°40' E 023°33'3 6.5
2017-Jul-18 20:00N 59°41' E 023°39'4 7.0
2017-Jul-18 19:30N 59°42' E 023°46'3 6.0
2017-Jul-18 19:01N 59°42' E 023°51'3 6.5
2017-Jul-18 18:30N 59°43' E 023°58'3 6.5
2017-Jul-18 18:00N 59°43' E 024°04'3 6.4
2017-Jul-18 17:31N 59°42' E 024°10'3 6.0
2017-Jul-18 17:01N 59°42' E 024°16'3 6.0
2017-Jul-18 16:31N 59°41' E 024°22'3 6.0
2017-Jul-18 16:00N 59°40' E 024°27'3 5.9
2017-Jul-18 15:31N 59°39' E 024°32'3 5.9
2017-Jul-18 15:00N 59°38' E 024°38'7 6.8
2017-Jul-18 14:01N 59°32' E 024°44'4 7.3
2017-Jul-18 13:31N 59°28' E 024°46'1 2.0
2017-Jul-18 13:01N 59°27' E 024°46'0 0.0
2017-Jul-18 12:28N 59°27' E 024°46'0 0.0
2017-Jul-18 11:58N 59°27' E 024°46'0 0.0
2017-Jul-18 11:28N 59°27' E 024°46'0 0.0
2017-Jul-18 10:58N 59°27' E 024°46'0 0.0
2017-Jul-18 10:28N 59°27' E 024°46'0 0.0
2017-Jul-18 09:58N 59°27' E 024°46'0 0.0
2017-Jul-18 09:28N 59°27' E 024°46'0 0.0
2017-Jul-18 08:58N 59°27' E 024°46'0 0.0
2017-Jul-18 08:28N 59°27' E 024°46'0 0.0
2017-Jul-18 07:58N 59°27' E 024°46'0 0.0
2017-Jul-18 07:28N 59°27' E 024°46'0 0.0
2017-Jul-18 06:58N 59°27' E 024°46'0 0.0
2017-Jul-18 06:28N 59°27' E 024°46'0 0.0
2017-Jul-18 05:58N 59°27' E 024°46'0 0.0
2017-Jul-18 05:28N 59°27' E 024°46'0 0.0
2017-Jul-18 04:58N 59°27' E 024°46'0 0.0
2017-Jul-18 04:28N 59°27' E 024°46'0 0.0
2017-Jul-18 03:58N 59°27' E 024°46'0 0.0
2017-Jul-18 03:28N 59°27' E 024°46'0 0.0
2017-Jul-18 02:58N 59°27' E 024°46'0 0.0
2017-Jul-18 02:28N 59°27' E 024°46'0 0.0
2017-Jul-18 01:58N 59°27' E 024°46'0 0.0
2017-Jul-18 01:28N 59°27' E 024°46'0 0.0
2017-Jul-18 00:58N 59°27' E 024°46'0 0.0
2017-Jul-18 00:28N 59°27' E 024°46'0 0.0
2017-Jul-17 23:58N 59°27' E 024°46'0 0.0
2017-Jul-17 23:28N 59°27' E 024°46'0 0.0
2017-Jul-17 22:58N 59°27' E 024°46'0 0.0
2017-Jul-17 22:28N 59°27' E 024°46'0 0.0
2017-Jul-17 21:58N 59°27' E 024°46'0 0.0
2017-Jul-17 21:28N 59°27' E 024°46'0 0.0
2017-Jul-17 20:58N 59°27' E 024°46'0 0.0
2017-Jul-17 20:29N 59°27' E 024°46'0 0.0
2017-Jul-17 19:59N 59°27' E 024°46'0 0.0
2017-Jul-17 19:28N 59°27' E 024°46'0 0.0
2017-Jul-17 18:58N 59°27' E 024°46'0 0.0
2017-Jul-17 18:31N 59°27' E 024°46'0 0.0
2017-Jul-17 17:58N 59°27' E 024°46'0 0.0
2017-Jul-17 17:31N 59°27' E 024°46'0 0.0
2017-Jul-17 17:01N 59°27' E 024°46'0 0.0
2017-Jul-17 16:31N 59°27' E 024°46'0 0.0
2017-Jul-17 16:01N 59°27' E 024°46'0 0.0
2017-Jul-17 15:31N 59°27' E 024°46'0 0.0
2017-Jul-17 15:01N 59°27' E 024°46'0 0.0
2017-Jul-17 14:31N 59°27' E 024°46'0 0.0
2017-Jul-17 14:00N 59°27' E 024°46'0 0.0
2017-Jul-17 13:30N 59°27' E 024°46'0 0.0
2017-Jul-17 13:01N 59°27' E 024°46'0 0.0
2017-Jul-17 12:30N 59°27' E 024°46'0 0.0
2017-Jul-17 12:01N 59°27' E 024°46'0 0.0
2017-Jul-17 11:31N 59°27' E 024°46'0 0.0
2017-Jul-17 11:01N 59°27' E 024°46'0 0.0
2017-Jul-17 10:31N 59°27' E 024°46'0 0.0
2017-Jul-17 10:01N 59°27' E 024°46'0 0.0
2017-Jul-17 09:31N 59°27' E 024°46'0 0.0
2017-Jul-17 09:01N 59°27' E 024°46'0 0.0
2017-Jul-17 08:30N 59°27' E 024°46'0 0.6
2017-Jul-17 08:00N 59°27' E 024°46'3 6.6
2017-Jul-17 07:30N 59°30' E 024°44'4 7.5
2017-Jul-17 07:00N 59°34' E 024°41'4 7.4
2017-Jul-17 06:30N 59°37' E 024°39'3 5.5
2017-Jul-17 06:01N 59°40' E 024°39'2 3.7
2017-Jul-17 05:31N 59°42' E 024°39'2 4.0
2017-Jul-17 05:01N 59°44' E 024°40'2 3.5
2017-Jul-17 04:31N 59°46' E 024°41'2 3.6
2017-Jul-17 04:00N 59°47' E 024°42'2 3.4
2017-Jul-17 03:31N 59°49' E 024°44'2 3.5
2017-Jul-17 03:00N 59°49' E 024°48'2 3.5
2017-Jul-17 02:30N 59°50' E 024°51'2 3.4
2017-Jul-17 02:01N 59°50' E 024°54'2 3.4
2017-Jul-17 01:31N 59°50' E 024°58'2 3.4
2017-Jul-17 01:01N 59°51' E 025°01'2 3.8
2017-Jul-17 00:31N 59°51' E 025°05'2 4.3
2017-Jul-17 00:00N 59°51' E 025°09'2 4.8
2017-Jul-16 23:31N 59°52' E 025°14'3 5.2
2017-Jul-16 23:01N 59°53' E 025°19'3 5.6
2017-Jul-16 22:31N 59°53' E 025°24'3 5.6
2017-Jul-16 22:00N 59°54' E 025°30'3 5.5
2017-Jul-16 21:31N 59°54' E 025°35'3 5.6
2017-Jul-16 21:00N 59°55' E 025°41'3 5.1
2017-Jul-16 20:30N 59°55' E 025°46'3 6.6
2017-Jul-16 20:00N 59°56' E 025°52'3 5.2
2017-Jul-16 19:30N 59°57' E 025°57'3 5.7
2017-Jul-16 19:01N 59°57' E 026°02'2 4.8
2017-Jul-16 18:31N 59°58' E 026°07'2 4.9
2017-Jul-16 18:01N 60°00' E 026°11'3 5.2
2017-Jul-16 17:31N 60°02' E 026°13'3 5.6
2017-Jul-16 17:00N 60°05' E 026°16'3 6.6
2017-Jul-16 16:31N 60°08' E 026°19'4 7.0
2017-Jul-16 16:00N 60°11' E 026°22'3 6.9
2017-Jul-16 15:30N 60°14' E 026°25'4 7.1
2017-Jul-16 15:00N 60°16' E 026°30'3 6.0
2017-Jul-16 14:30N 60°19' E 026°34'4 7.4
2017-Jul-16 14:00N 60°21' E 026°40'3 5.1
2017-Jul-16 13:30N 60°22' E 026°44'3 6.1
2017-Jul-16 13:00N 60°23' E 026°50'3 6.1
2017-Jul-16 12:30N 60°25' E 026°55'2 4.2
2017-Jul-16 12:00N 60°27' E 026°58'1 2.8
2017-Jul-16 11:31N 60°28' E 026°58'1 1.2
2017-Jul-16 11:00N 60°28' E 026°57'0 0.0
2017-Jul-16 10:28N 60°28' E 026°57'0 0.0
2017-Jul-16 10:00N 60°28' E 026°57'0 0.0
2017-Jul-16 09:30N 60°28' E 026°57'0 0.0
2017-Jul-16 09:00N 60°28' E 026°57'0 0.0
2017-Jul-16 08:30N 60°28' E 026°57'0 0.0
2017-Jul-16 08:00N 60°28' E 026°57'0 0.0
2017-Jul-16 07:30N 60°28' E 026°57'0 0.0
2017-Jul-16 07:00N 60°28' E 026°57'0 0.0
2017-Jul-16 06:30N 60°28' E 026°57'0 0.0
2017-Jul-16 06:00N 60°28' E 026°57'0 0.0
2017-Jul-16 05:30N 60°28' E 026°57'0 0.0
2017-Jul-16 05:00N 60°28' E 026°57'0 0.0
2017-Jul-16 04:30N 60°28' E 026°57'0 0.0
2017-Jul-16 04:00N 60°28' E 026°57'0 0.0
2017-Jul-16 03:30N 60°28' E 026°57'0 0.0
2017-Jul-16 03:00N 60°28' E 026°57'0 0.0
2017-Jul-16 02:30N 60°28' E 026°57'0 0.0
2017-Jul-16 02:00N 60°28' E 026°57'0 0.0
2017-Jul-16 01:30N 60°28' E 026°57'0 0.0
2017-Jul-16 01:00N 60°28' E 026°57'0 0.0
2017-Jul-16 00:29N 60°28' E 026°57'0 0.0
2017-Jul-15 23:59N 60°28' E 026°57'0 0.0
2017-Jul-15 23:29N 60°28' E 026°57'0 0.0
2017-Jul-15 22:59N 60°28' E 026°57'0 0.0
2017-Jul-15 22:30N 60°28' E 026°57'0 0.0
2017-Jul-15 21:59N 60°28' E 026°57'0 0.0
2017-Jul-15 21:29N 60°28' E 026°57'0 0.0
2017-Jul-15 20:59N 60°28' E 026°57'0 0.0
2017-Jul-15 20:30N 60°28' E 026°57'0 0.0
2017-Jul-15 19:59N 60°28' E 026°57'0 0.0
2017-Jul-15 19:29N 60°28' E 026°57'0 0.0
2017-Jul-15 18:59N 60°28' E 026°57'0 0.0
2017-Jul-15 18:26N 60°28' E 026°57'0 0.0
2017-Jul-15 17:59N 60°28' E 026°57'0 0.0
2017-Jul-15 17:29N 60°28' E 026°57'0 0.0
2017-Jul-15 16:59N 60°28' E 026°57'0 0.0
2017-Jul-15 16:29N 60°28' E 026°57'0 0.0
2017-Jul-15 15:59N 60°28' E 026°57'0 0.0
2017-Jul-15 15:29N 60°28' E 026°57'0 0.0
2017-Jul-15 14:59N 60°28' E 026°57'0 0.0
2017-Jul-15 13:59N 60°28' E 026°57'0 0.0
2017-Jul-15 13:29N 60°28' E 026°57'0 0.0
2017-Jul-15 12:59N 60°28' E 026°57'0 0.0
2017-Jul-15 12:29N 60°28' E 026°57'0 0.0
2017-Jul-15 11:59N 60°28' E 026°57'0 0.0
2017-Jul-15 11:29N 60°28' E 026°57'0 0.0
2017-Jul-15 10:59N 60°28' E 026°57'0 0.0
2017-Jul-15 10:29N 60°28' E 026°57'0 0.0
2017-Jul-15 09:56N 60°28' E 026°57'0 0.0
2017-Jul-15 09:29N 60°28' E 026°57'0 0.0
2017-Jul-15 08:59N 60°28' E 026°57'0 0.0
2017-Jul-15 08:29N 60°28' E 026°57'0 0.0
2017-Jul-15 07:59N 60°28' E 026°57'0 0.0
2017-Jul-15 07:29N 60°28' E 026°57'0 0.0
2017-Jul-15 06:59N 60°28' E 026°57'0 0.0
2017-Jul-15 06:29N 60°28' E 026°57'0 0.0
2017-Jul-15 05:59N 60°28' E 026°57'0 0.0
2017-Jul-15 05:29N 60°28' E 026°57'0 0.0
2017-Jul-15 04:59N 60°28' E 026°57'0 0.0
2017-Jul-15 04:29N 60°28' E 026°57'0 0.0
2017-Jul-15 03:59N 60°28' E 026°57'0 0.0
2017-Jul-15 03:29N 60°28' E 026°57'0 0.0
2017-Jul-15 02:59N 60°28' E 026°57'0 0.0
2017-Jul-15 02:29N 60°28' E 026°57'0 0.0
2017-Jul-15 01:59N 60°28' E 026°57'0 0.0
2017-Jul-15 01:29N 60°28' E 026°57'0 0.0
2017-Jul-15 00:59N 60°28' E 026°57'0 0.0
2017-Jul-15 00:29N 60°28' E 026°57'0 0.0
2017-Jul-14 23:59N 60°28' E 026°57'0 0.0
2017-Jul-14 23:29N 60°28' E 026°57'0 0.0
2017-Jul-14 22:59N 60°28' E 026°57'0 0.0
2017-Jul-14 22:29N 60°28' E 026°57'0 0.0
2017-Jul-14 21:59N 60°28' E 026°57'0 0.0
2017-Jul-14 21:29N 60°28' E 026°57'0 0.0
2017-Jul-14 20:59N 60°28' E 026°57'0 0.0
2017-Jul-14 20:29N 60°28' E 026°57'0 0.0
2017-Jul-14 19:59N 60°28' E 026°57'0 0.0
2017-Jul-14 19:29N 60°28' E 026°57'0 0.0
2017-Jul-14 19:01N 60°28' E 026°57'0 0.0
2017-Jul-14 18:29N 60°28' E 026°57'0 0.0
2017-Jul-14 17:59N 60°28' E 026°57'0 0.0
2017-Jul-14 17:30N 60°28' E 026°57'0 0.0
2017-Jul-14 16:59N 60°28' E 026°57'0 0.0
2017-Jul-14 16:29N 60°28' E 026°57'0 0.0
2017-Jul-14 15:59N 60°28' E 026°57'0 0.0
2017-Jul-14 15:29N 60°28' E 026°57'0 0.0
2017-Jul-14 15:00N 60°28' E 026°57'0 0.0
2017-Jul-14 14:30N 60°28' E 026°57'0 0.0
2017-Jul-14 13:59N 60°28' E 026°57'0 0.0
2017-Jul-14 13:29N 60°28' E 026°57'0 0.0
2017-Jul-14 12:59N 60°28' E 026°57'0 0.0
2017-Jul-14 12:30N 60°28' E 026°57'0 0.0
2017-Jul-14 11:59N 60°28' E 026°57'0 0.0
2017-Jul-14 11:29N 60°28' E 026°57'0 0.0
2017-Jul-14 11:00N 60°28' E 026°57'0 0.0
2017-Jul-14 10:30N 60°28' E 026°57'0 0.0
2017-Jul-14 10:00N 60°28' E 026°57'0 0.0
2017-Jul-14 09:30N 60°28' E 026°57'0 0.0
2017-Jul-14 09:00N 60°28' E 026°57'0 0.0
2017-Jul-14 08:29N 60°28' E 026°57'0 0.0
2017-Jul-14 07:59N 60°28' E 026°57'0 0.0
2017-Jul-14 07:30N 60°28' E 026°57'0 0.0
2017-Jul-14 07:00N 60°28' E 026°57'0 0.0
2017-Jul-14 06:29N 60°28' E 026°57'0 0.0
2017-Jul-14 05:59N 60°28' E 026°57'0 0.0
2017-Jul-14 05:29N 60°28' E 026°57'0 0.0
2017-Jul-14 04:59N 60°28' E 026°57'0 0.0
2017-Jul-14 04:30N 60°28' E 026°57'0 0.0
2017-Jul-14 03:59N 60°28' E 026°57'0 0.0
2017-Jul-14 03:29N 60°28' E 026°57'0 0.0
2017-Jul-14 02:59N 60°28' E 026°57'0 0.0
2017-Jul-14 02:30N 60°28' E 026°57'0 0.0
2017-Jul-14 01:59N 60°28' E 026°57'0 0.0
2017-Jul-14 01:29N 60°28' E 026°57'0 0.0
2017-Jul-14 00:59N 60°28' E 026°57'  
Track history (hours):
 
Tides and Currents Weather Stations Pressure Air Temp Water Temp Dewpoint Dewpoint Depression Visibility Wind Speed Wind Dir Waves Ship Positions

Mir (Russia)

Last reported at 2017-Jul-24 00:30 UTC. Time now 2017-Jul-24 00:40 UTC.
Position N 59°37' E 021°09'.

Length 109 m; draft 6.4 m.

Type: Sailing vessel. MMSI: 273133800.

Date/timePositionNaut miles runAvg speedWind from/ knotsBaromVisibWave heightAir tempDewpointWater temp
2017-Jul-24 00:30N 59°37' E 021°09'0 0.4
2017-Jul-24 00:00N 59°37' E 021°09'0 0.4
2017-Jul-23 23:30N 59°38' E 021°09'0 0.4
2017-Jul-23 23:00N 59°38' E 021°09'0 0.4
2017-Jul-23 22:30N 59°38' E 021°09'0 0.4
2017-Jul-23 22:00N 59°38' E 021°10'1 2.5
2017-Jul-23 21:30N 59°39' E 021°11'2 4.4
2017-Jul-23 21:01N 59°41' E 021°14'3 5.6
2017-Jul-23 20:30N 59°42' E 021°19'4 7.9
2017-Jul-23 20:01N 59°46' E 021°21'4 8.0
2017-Jul-23 19:30N 59°50' E 021°22'4 8.6
2017-Jul-23 19:01N 59°52' E 021°29'4 8.5
2017-Jul-23 18:31N 59°55' E 021°36'4 8.5
2017-Jul-23 18:01N 59°58' E 021°41'4 8.7
2017-Jul-23 17:30N 60°02' E 021°41'4 8.9
2017-Jul-23 17:00N 60°07' E 021°41'5 9.1
2017-Jul-23 16:31N 60°11' E 021°42'3 6.3
2017-Jul-23 16:00N 60°14' E 021°47'4 8.0
2017-Jul-23 15:30N 60°15' E 021°54'4 7.6
2017-Jul-23 15:00N 60°17' E 022°01'4 8.0
2017-Jul-23 14:31N 60°21' E 022°05'3 5.0
2017-Jul-23 14:01N 60°23' E 022°07'2 4.3
2017-Jul-23 13:30N 60°25' E 022°08'1 2.8
2017-Jul-23 13:00N 60°25' E 022°11'2 3.4
2017-Jul-23 12:30N 60°26' E 022°14'0 0.2
2017-Jul-23 11:58N 60°26' E 022°14'0 0.0
2017-Jul-23 11:28N 60°26' E 022°14'0 0.0
2017-Jul-23 10:58N 60°26' E 022°14'0 0.0
2017-Jul-23 10:28N 60°26' E 022°14'0 0.0
2017-Jul-23 09:58N 60°26' E 022°14'0 0.0
2017-Jul-23 09:28N 60°26' E 022°14'0 0.0
2017-Jul-23 08:58N 60°26' E 022°14'0 0.0
2017-Jul-23 08:28N 60°26' E 022°14'0 0.0
2017-Jul-23 07:58N 60°26' E 022°14'0 0.0
2017-Jul-23 07:28N 60°26' E 022°14'0 0.0
2017-Jul-23 06:53N 60°26' E 022°14'0 0.0
2017-Jul-23 06:28N 60°26' E 022°14'0 0.0
2017-Jul-23 05:58N 60°26' E 022°14'0 0.0
2017-Jul-23 05:28N 60°26' E 022°14'0 0.0
2017-Jul-23 04:58N 60°26' E 022°14'0 0.0
2017-Jul-23 04:28N 60°26' E 022°14'0 0.0
2017-Jul-23 03:58N 60°26' E 022°14'0 0.0
2017-Jul-23 03:28N 60°26' E 022°14'0 0.0
2017-Jul-23 02:58N 60°26' E 022°14'0 0.0
2017-Jul-23 02:28N 60°26' E 022°14'0 0.0
2017-Jul-23 01:58N 60°26' E 022°14'0 0.0
2017-Jul-23 01:28N 60°26' E 022°14'0 0.0
2017-Jul-23 00:58N 60°26' E 022°14'0 0.0
2017-Jul-23 00:28N 60°26' E 022°14'0 0.0
2017-Jul-22 23:58N 60°26' E 022°14'0 0.0
2017-Jul-22 23:28N 60°26' E 022°14'0 0.0
2017-Jul-22 22:58N 60°26' E 022°14'0 0.0
2017-Jul-22 22:28N 60°26' E 022°14'0 0.0
2017-Jul-22 21:58N 60°26' E 022°14'0 0.0
2017-Jul-22 21:28N 60°26' E 022°14'0 0.0
2017-Jul-22 21:00N 60°26' E 022°14'0 0.0
2017-Jul-22 20:30N 60°26' E 022°14'0 0.0
2017-Jul-22 20:00N 60°26' E 022°14'0 0.0
2017-Jul-22 19:29N 60°26' E 022°14'0 0.0
2017-Jul-22 18:58N 60°26' E 022°14'0 0.0
2017-Jul-22 18:28N 60°26' E 022°14'0 0.0
2017-Jul-22 17:58N 60°26' E 022°14'0 0.0
2017-Jul-22 17:28N 60°26' E 022°14'0 0.0
2017-Jul-22 16:58N 60°26' E 022°14'0 0.0
2017-Jul-22 16:28N 60°26' E 022°14'0 0.0
2017-Jul-22 15:58N 60°26' E 022°14'0 0.0
2017-Jul-22 15:28N 60°26' E 022°14'0 0.0
2017-Jul-22 14:58N 60°26' E 022°14'0 0.0
2017-Jul-22 13:58N 60°26' E 022°14'0 0.0
2017-Jul-22 13:28N 60°26' E 022°14'0 0.0
2017-Jul-22 12:58N 60°26' E 022°14'0 0.0
2017-Jul-22 12:28N 60°26' E 022°14'0 0.0
2017-Jul-22 11:58N 60°26' E 022°14'0 0.0
2017-Jul-22 11:28N 60°26' E 022°14'0 0.0
2017-Jul-22 10:58N 60°26' E 022°14'0 0.0
2017-Jul-22 10:28N 60°26' E 022°14'0 0.0
2017-Jul-22 09:58N 60°26' E 022°14'0 0.0
2017-Jul-22 09:28N 60°26' E 022°14'0 0.0
2017-Jul-22 08:58N 60°26' E 022°14'0 0.0
2017-Jul-22 08:28N 60°26' E 022°14'0 0.0
2017-Jul-22 07:58N 60°26' E 022°14'0 0.0
2017-Jul-22 07:28N 60°26' E 022°14'0 0.0
2017-Jul-22 06:58N 60°26' E 022°14'0 0.0
2017-Jul-22 06:28N 60°26' E 022°14'0 0.0
2017-Jul-22 05:58N 60°26' E 022°14'0 0.0
2017-Jul-22 05:28N 60°26' E 022°14'0 0.0
2017-Jul-22 04:58N 60°26' E 022°14'0 0.0
2017-Jul-22 04:28N 60°26' E 022°14'0 0.0
2017-Jul-22 03:58N 60°26' E 022°14'0 0.0
2017-Jul-22 03:28N 60°26' E 022°14'0 0.0
2017-Jul-22 02:58N 60°26' E 022°14'0 0.0
2017-Jul-22 02:28N 60°26' E 022°14'0 0.0
2017-Jul-22 01:58N 60°26' E 022°14'0 0.0
2017-Jul-22 01:28N 60°26' E 022°14'0 0.0
2017-Jul-22 00:58N 60°26' E 022°14'0 0.0
2017-Jul-22 00:28N 60°26' E 022°14'0 0.0
2017-Jul-21 23:58N 60°26' E 022°14'0 0.0
2017-Jul-21 23:28N 60°26' E 022°14'0 0.0
2017-Jul-21 22:58N 60°26' E 022°14'0 0.0
2017-Jul-21 22:28N 60°26' E 022°14'0 0.0
2017-Jul-21 21:58N 60°26' E 022°14'0 0.0
2017-Jul-21 21:28N 60°26' E 022°14'0 0.0
2017-Jul-21 20:58N 60°26' E 022°14'0 0.0
2017-Jul-21 20:28N 60°26' E 022°14'0 0.0
2017-Jul-21 19:58N 60°26' E 022°14'0 0.0
2017-Jul-21 19:28N 60°26' E 022°14'0 0.0
2017-Jul-21 18:58N 60°26' E 022°14'0 0.0
2017-Jul-21 18:28N 60°26' E 022°14'0 0.0
2017-Jul-21 17:58N 60°26' E 022°14'0 0.0
2017-Jul-21 17:28N 60°26' E 022°14'0 0.0
2017-Jul-21 16:58N 60°26' E 022°14'0 0.0
2017-Jul-21 16:28N 60°26' E 022°14'0 0.0
2017-Jul-21 15:58N 60°26' E 022°14'0 0.0
2017-Jul-21 15:28N 60°26' E 022°14'0 0.0
2017-Jul-21 14:58N 60°26' E 022°14'0 0.0
2017-Jul-21 14:28N 60°26' E 022°14'0 0.0
2017-Jul-21 13:58N 60°26' E 022°14'0 0.0
2017-Jul-21 13:28N 60°26' E 022°14'0 0.0
2017-Jul-21 12:58N 60°26' E 022°14'0 0.0
2017-Jul-21 12:28N 60°26' E 022°14'0 0.0
2017-Jul-21 12:01N 60°26' E 022°14'0 0.0
2017-Jul-21 11:28N 60°26' E 022°14'0 0.0
2017-Jul-21 10:58N 60°26' E 022°14'0 0.0
2017-Jul-21 10:31N 60°26' E 022°14'0 0.0
2017-Jul-21 09:58N 60°26' E 022°14'0 0.0
2017-Jul-21 09:31N 60°26' E 022°14'0 0.0
2017-Jul-21 09:01N 60°26' E 022°14'0 0.0
2017-Jul-21 08:31N 60°26' E 022°14'0 0.0
2017-Jul-21 08:01N 60°26' E 022°14'0 0.0
2017-Jul-21 07:30N 60°26' E 022°14'0 0.0
2017-Jul-21 07:00N 60°26' E 022°14'0 0.0
2017-Jul-21 06:30N 60°26' E 022°14'0 0.0
2017-Jul-21 06:00N 60°26' E 022°14'0 0.0
2017-Jul-21 05:30N 60°26' E 022°14'0 0.0
2017-Jul-21 05:00N 60°26' E 022°14'0 0.0
2017-Jul-21 04:30N 60°26' E 022°14'0 0.0
2017-Jul-21 04:00N 60°26' E 022°14'0 0.0
2017-Jul-21 03:30N 60°26' E 022°14'0 0.0
2017-Jul-21 03:00N 60°26' E 022°14'0 0.0
2017-Jul-21 02:30N 60°26' E 022°14'0 0.0
2017-Jul-21 02:00N 60°26' E 022°14'0 0.0
2017-Jul-21 01:30N 60°26' E 022°14'0 0.0
2017-Jul-21 01:00N 60°26' E 022°14'0 0.0
2017-Jul-21 00:30N 60°26' E 022°14'0 0.0
2017-Jul-21 00:00N 60°26' E 022°14'0 0.0
2017-Jul-20 23:30N 60°26' E 022°14'0 0.0
2017-Jul-20 23:00N 60°26' E 022°14'0 0.0
2017-Jul-20 22:30N 60°26' E 022°14'0 0.0
2017-Jul-20 22:00N 60°26' E 022°14'0 0.0
2017-Jul-20 21:30N 60°26' E 022°14'0 0.0
2017-Jul-20 20:56N 60°26' E 022°14'0 0.0
2017-Jul-20 20:29N 60°26' E 022°14'0 0.0
2017-Jul-20 20:00N 60°26' E 022°14'0 0.0
2017-Jul-20 19:27N 60°26' E 022°14'0 0.0
2017-Jul-20 18:57N 60°26' E 022°14'0 0.0
2017-Jul-20 18:30N 60°26' E 022°14'0 0.0
2017-Jul-20 18:00N 60°26' E 022°14'0 0.0
2017-Jul-20 17:30N 60°26' E 022°14'0 0.0
2017-Jul-20 17:00N 60°26' E 022°14'0 0.0
2017-Jul-20 16:28N 60°26' E 022°14'0 0.0
2017-Jul-20 16:00N 60°26' E 022°14'0 0.0
2017-Jul-20 15:30N 60°26' E 022°14'0 0.0
2017-Jul-20 15:00N 60°26' E 022°14'0 0.0
2017-Jul-20 14:00N 60°26' E 022°14'0 0.0
2017-Jul-20 13:30N 60°26' E 022°14'0 0.0
2017-Jul-20 13:00N 60°26' E 022°14'0 0.0
2017-Jul-20 12:30N 60°26' E 022°14'0 0.0
2017-Jul-20 12:00N 60°26' E 022°14'0 0.0
2017-Jul-20 11:30N 60°26' E 022°14'0 0.0
2017-Jul-20 11:00N 60°26' E 022°14'0 0.0
2017-Jul-20 10:30N 60°26' E 022°14'0 0.0
2017-Jul-20 10:00N 60°26' E 022°14'0 0.0
2017-Jul-20 09:30N 60°26' E 022°14'0 0.0
2017-Jul-20 09:00N 60°26' E 022°14'0 0.0
2017-Jul-20 08:30N 60°26' E 022°14'0 0.0
2017-Jul-20 08:00N 60°26' E 022°14'0 0.0
2017-Jul-20 07:30N 60°26' E 022°14'0 0.0
2017-Jul-20 07:00N 60°26' E 022°14'0 0.0
2017-Jul-20 06:30N 60°26' E 022°14'0 0.0
2017-Jul-20 06:00N 60°26' E 022°14'0 0.0
2017-Jul-20 05:30N 60°26' E 022°14'0 0.0
2017-Jul-20 05:00N 60°26' E 022°14'0 0.0
2017-Jul-20 04:30N 60°26' E 022°14'0 0.0
2017-Jul-20 04:00N 60°26' E 022°14'0 0.0
2017-Jul-20 03:30N 60°26' E 022°14'0 0.0
2017-Jul-20 03:00N 60°26' E 022°14'0 0.0
2017-Jul-20 02:30N 60°26' E 022°14'0 0.0
2017-Jul-20 02:00N 60°26' E 022°14'0 0.0
2017-Jul-20 01:24N 60°26' E 022°14'0 0.0
2017-Jul-20 01:00N 60°26' E 022°14'0 0.0
2017-Jul-20 00:30N 60°26' E 022°14'0 0.0
2017-Jul-20 00:00N 60°26' E 022°14'0 0.0
2017-Jul-19 23:21N 60°26' E 022°14'0 0.0
2017-Jul-19 23:00N 60°26' E 022°14'0 0.0
2017-Jul-19 22:30N 60°26' E 022°14'0 0.0
2017-Jul-19 22:00N 60°26' E 022°14'0 0.0
2017-Jul-19 21:30N 60°26' E 022°14'0 0.3
2017-Jul-19 21:01N 60°26' E 022°14'1 1.3
2017-Jul-19 20:30N 60°26' E 022°12'1 2.5
2017-Jul-19 20:00N 60°25' E 022°10'2 3.1
2017-Jul-19 19:30N 60°25' E 022°08'2 3.3
2017-Jul-19 19:00N 60°23' E 022°07'2 4.1
2017-Jul-19 18:31N 60°21' E 022°05'2 3.6
2017-Jul-19 18:00N 60°19' E 022°03'2 4.9
2017-Jul-19 17:30N 60°17' E 022°01'4 8.2
2017-Jul-19 17:00N 60°16' E 021°54'4 8.6
2017-Jul-19 16:31N 60°14' E 021°46'3 6.8
2017-Jul-19 16:00N 60°11' E 021°42'4 7.2
2017-Jul-19 15:30N 60°08' E 021°41'3 7.0
2017-Jul-19 15:01N 60°04' E 021°41'4 7.5
2017-Jul-19 14:30N 60°00' E 021°42'4 8.0
2017-Jul-19 14:01N 59°57' E 021°40'4 8.8
2017-Jul-19 13:31N 59°54' E 021°33'4 8.9
2017-Jul-19 13:00N 59°51' E 021°26'4 7.8
2017-Jul-19 12:31N 59°48' E 021°21'3 6.6
2017-Jul-19 12:00N 59°45' E 021°21'3 5.9
2017-Jul-19 11:31N 59°42' E 021°20'2 4.3
2017-Jul-19 11:01N 59°40' E 021°20'2 4.5
2017-Jul-19 10:31N 59°38' E 021°20'2 4.4
2017-Jul-19 10:00N 59°36' E 021°20'2 4.2
2017-Jul-19 09:30N 59°33' E 021°20'2 3.8
2017-Jul-19 09:01N 59°32' E 021°20'2 3.6
2017-Jul-19 08:30N 59°30' E 021°20'2 3.7
2017-Jul-19 08:01N 59°28' E 021°21'2 3.6
2017-Jul-19 07:31N 59°26' E 021°21'2 3.7
2017-Jul-19 07:01N 59°26' E 021°24'2 4.2
2017-Jul-19 06:30N 59°26' E 021°28'2 4.2
2017-Jul-19 06:00N 59°26' E 021°33'2 4.2
2017-Jul-19 05:31N 59°26' E 021°37'2 3.9
2017-Jul-19 05:01N 59°26' E 021°41'3 5.5
2017-Jul-19 04:31N 59°26' E 021°46'3 6.4
2017-Jul-19 04:01N 59°26' E 021°52'4 7.0
2017-Jul-19 03:30N 59°26' E 021°59'4 7.1
2017-Jul-19 03:00N 59°27' E 022°06'4 7.2
2017-Jul-19 02:30N 59°28' E 022°13'3 6.9
2017-Jul-19 02:00N 59°28' E 022°20'3 7.0
2017-Jul-19 01:31N 59°30' E 022°26'3 6.9
2017-Jul-19 01:00N 59°31' E 022°32'3 7.0
2017-Jul-19 00:31N 59°32' E 022°39'4 7.0
2017-Jul-19 00:00N 59°33' E 022°46'3 7.0
2017-Jul-18 23:30N 59°34' E 022°52'3 7.0
2017-Jul-18 23:01N 59°35' E 022°59'3 7.0
2017-Jul-18 22:30N 59°36' E 023°06'3 7.0
2017-Jul-18 22:01N 59°37' E 023°12'4 7.0
2017-Jul-18 21:30N 59°38' E 023°19'4 7.0
2017-Jul-18 21:00N 59°39' E 023°26'4 7.6
2017-Jul-18 20:30N 59°40' E 023°33'3 6.5
2017-Jul-18 20:00N 59°41' E 023°39'4 7.0
2017-Jul-18 19:30N 59°42' E 023°46'3 6.0
2017-Jul-18 19:01N 59°42' E 023°51'3 6.5
2017-Jul-18 18:30N 59°43' E 023°58'3 6.5
2017-Jul-18 18:00N 59°43' E 024°04'3 6.4
2017-Jul-18 17:31N 59°42' E 024°10'3 6.0
2017-Jul-18 17:01N 59°42' E 024°16'3 6.0
2017-Jul-18 16:31N 59°41' E 024°22'3 6.0
2017-Jul-18 16:00N 59°40' E 024°27'3 5.9
2017-Jul-18 15:31N 59°39' E 024°32'3 5.9
2017-Jul-18 15:00N 59°38' E 024°38'7 6.8
2017-Jul-18 14:01N 59°32' E 024°44'4 7.3
2017-Jul-18 13:31N 59°28' E 024°46'1 2.0
2017-Jul-18 13:01N 59°27' E 024°46'0 0.0
2017-Jul-18 12:28N 59°27' E 024°46'0 0.0
2017-Jul-18 11:58N 59°27' E 024°46'0 0.0
2017-Jul-18 11:28N 59°27' E 024°46'0 0.0
2017-Jul-18 10:58N 59°27' E 024°46'0 0.0
2017-Jul-18 10:28N 59°27' E 024°46'0 0.0
2017-Jul-18 09:58N 59°27' E 024°46'0 0.0
2017-Jul-18 09:28N 59°27' E 024°46'0 0.0
2017-Jul-18 08:58N 59°27' E 024°46'0 0.0
2017-Jul-18 08:28N 59°27' E 024°46'0 0.0
2017-Jul-18 07:58N 59°27' E 024°46'0 0.0
2017-Jul-18 07:28N 59°27' E 024°46'0 0.0
2017-Jul-18 06:58N 59°27' E 024°46'0 0.0
2017-Jul-18 06:28N 59°27' E 024°46'0 0.0
2017-Jul-18 05:58N 59°27' E 024°46'0 0.0
2017-Jul-18 05:28N 59°27' E 024°46'0 0.0
2017-Jul-18 04:58N 59°27' E 024°46'0 0.0
2017-Jul-18 04:28N 59°27' E 024°46'0 0.0
2017-Jul-18 03:58N 59°27' E 024°46'0 0.0
2017-Jul-18 03:28N 59°27' E 024°46'0 0.0
2017-Jul-18 02:58N 59°27' E 024°46'0 0.0
2017-Jul-18 02:28N 59°27' E 024°46'0 0.0
2017-Jul-18 01:58N 59°27' E 024°46'0 0.0
2017-Jul-18 01:28N 59°27' E 024°46'0 0.0
2017-Jul-18 00:58N 59°27' E 024°46'0 0.0
2017-Jul-18 00:28N 59°27' E 024°46'0 0.0
2017-Jul-17 23:58N 59°27' E 024°46'0 0.0
2017-Jul-17 23:28N 59°27' E 024°46'0 0.0
2017-Jul-17 22:58N 59°27' E 024°46'0 0.0
2017-Jul-17 22:28N 59°27' E 024°46'0 0.0
2017-Jul-17 21:58N 59°27' E 024°46'0 0.0
2017-Jul-17 21:28N 59°27' E 024°46'0 0.0
2017-Jul-17 20:58N 59°27' E 024°46'0 0.0
2017-Jul-17 20:29N 59°27' E 024°46'0 0.0
2017-Jul-17 19:59N 59°27' E 024°46'0 0.0
2017-Jul-17 19:28N 59°27' E 024°46'0 0.0
2017-Jul-17 18:58N 59°27' E 024°46'0 0.0
2017-Jul-17 18:31N 59°27' E 024°46'0 0.0
2017-Jul-17 17:58N 59°27' E 024°46'0 0.0
2017-Jul-17 17:31N 59°27' E 024°46'0 0.0
2017-Jul-17 17:01N 59°27' E 024°46'0 0.0
2017-Jul-17 16:31N 59°27' E 024°46'0 0.0
2017-Jul-17 16:01N 59°27' E 024°46'0 0.0
2017-Jul-17 15:31N 59°27' E 024°46'0 0.0
2017-Jul-17 15:01N 59°27' E 024°46'0 0.0
2017-Jul-17 14:31N 59°27' E 024°46'0 0.0
2017-Jul-17 14:00N 59°27' E 024°46'0 0.0
2017-Jul-17 13:30N 59°27' E 024°46'0 0.0
2017-Jul-17 13:01N 59°27' E 024°46'0 0.0
2017-Jul-17 12:30N 59°27' E 024°46'0 0.0
2017-Jul-17 12:01N 59°27' E 024°46'0 0.0
2017-Jul-17 11:31N 59°27' E 024°46'0 0.0
2017-Jul-17 11:01N 59°27' E 024°46'0 0.0
2017-Jul-17 10:31N 59°27' E 024°46'0 0.0
2017-Jul-17 10:01N 59°27' E 024°46'0 0.0
2017-Jul-17 09:31N 59°27' E 024°46'0 0.0
2017-Jul-17 09:01N 59°27' E 024°46'0 0.0
2017-Jul-17 08:30N 59°27' E 024°46'0 0.6
2017-Jul-17 08:00N 59°27' E 024°46'3 6.6
2017-Jul-17 07:30N 59°30' E 024°44'4 7.5
2017-Jul-17 07:00N 59°34' E 024°41'4 7.4
2017-Jul-17 06:30N 59°37' E 024°39'3 5.5
2017-Jul-17 06:01N 59°40' E 024°39'2 3.7
2017-Jul-17 05:31N 59°42' E 024°39'2 4.0
2017-Jul-17 05:01N 59°44' E 024°40'2 3.5
2017-Jul-17 04:31N 59°46' E 024°41'2 3.6
2017-Jul-17 04:00N 59°47' E 024°42'2 3.4
2017-Jul-17 03:31N 59°49' E 024°44'2 3.5
2017-Jul-17 03:00N 59°49' E 024°48'2 3.5
2017-Jul-17 02:30N 59°50' E 024°51'2 3.4
2017-Jul-17 02:01N 59°50' E 024°54'2 3.4
2017-Jul-17 01:31N 59°50' E 024°58'2 3.4
2017-Jul-17 01:01N 59°51' E 025°01'2 3.8
2017-Jul-17 00:31N 59°51' E 025°05'2 4.3
2017-Jul-17 00:00N 59°51' E 025°09'2 4.8
2017-Jul-16 23:31N 59°52' E 025°14'3 5.2
2017-Jul-16 23:01N 59°53' E 025°19'3 5.6
2017-Jul-16 22:31N 59°53' E 025°24'3 5.6
2017-Jul-16 22:00N 59°54' E 025°30'3 5.5
2017-Jul-16 21:31N 59°54' E 025°35'3 5.6
2017-Jul-16 21:00N 59°55' E 025°41'3 5.1
2017-Jul-16 20:30N 59°55' E 025°46'3 6.6
2017-Jul-16 20:00N 59°56' E 025°52'3 5.2
2017-Jul-16 19:30N 59°57' E 025°57'3 5.7
2017-Jul-16 19:01N 59°57' E 026°02'2 4.8
2017-Jul-16 18:31N 59°58' E 026°07'2 4.9
2017-Jul-16 18:01N 60°00' E 026°11'3 5.2
2017-Jul-16 17:31N 60°02' E 026°13'3 5.6
2017-Jul-16 17:00N 60°05' E 026°16'3 6.6
2017-Jul-16 16:31N 60°08' E 026°19'4 7.0
2017-Jul-16 16:00N 60°11' E 026°22'3 6.9
2017-Jul-16 15:30N 60°14' E 026°25'4 7.1
2017-Jul-16 15:00N 60°16' E 026°30'3 6.0
2017-Jul-16 14:30N 60°19' E 026°34'4 7.4
2017-Jul-16 14:00N 60°21' E 026°40'3 5.1
2017-Jul-16 13:30N 60°22' E 026°44'3 6.1
2017-Jul-16 13:00N 60°23' E 026°50'3 6.1
2017-Jul-16 12:30N 60°25' E 026°55'2 4.2
2017-Jul-16 12:00N 60°27' E 026°58'1 2.8
2017-Jul-16 11:31N 60°28' E 026°58'1 1.2
2017-Jul-16 11:00N 60°28' E 026°57'0 0.0
2017-Jul-16 10:28N 60°28' E 026°57'0 0.0
2017-Jul-16 10:00N 60°28' E 026°57'0 0.0
2017-Jul-16 09:30N 60°28' E 026°57'0 0.0
2017-Jul-16 09:00N 60°28' E 026°57'0 0.0
2017-Jul-16 08:30N 60°28' E 026°57'0 0.0
2017-Jul-16 08:00N 60°28' E 026°57'0 0.0
2017-Jul-16 07:30N 60°28' E 026°57'0 0.0
2017-Jul-16 07:00N 60°28' E 026°57'0 0.0
2017-Jul-16 06:30N 60°28' E 026°57'0 0.0
2017-Jul-16 06:00N 60°28' E 026°57'0 0.0
2017-Jul-16 05:30N 60°28' E 026°57'0 0.0
2017-Jul-16 05:00N 60°28' E 026°57'0 0.0
2017-Jul-16 04:30N 60°28' E 026°57'0 0.0
2017-Jul-16 04:00N 60°28' E 026°57'0 0.0
2017-Jul-16 03:30N 60°28' E 026°57'0 0.0
2017-Jul-16 03:00N 60°28' E 026°57'0 0.0
2017-Jul-16 02:30N 60°28' E 026°57'0 0.0
2017-Jul-16 02:00N 60°28' E 026°57'0 0.0
2017-Jul-16 01:30N 60°28' E 026°57'0 0.0
2017-Jul-16 01:00N 60°28' E 026°57'0 0.0
2017-Jul-16 00:29N 60°28' E 026°57'0 0.0
2017-Jul-15 23:59N 60°28' E 026°57'0 0.0
2017-Jul-15 23:29N 60°28' E 026°57'0 0.0
2017-Jul-15 22:59N 60°28' E 026°57'0 0.0
2017-Jul-15 22:30N 60°28' E 026°57'0 0.0
2017-Jul-15 21:59N 60°28' E 026°57'0 0.0
2017-Jul-15 21:29N 60°28' E 026°57'0 0.0
2017-Jul-15 20:59N 60°28' E 026°57'0 0.0
2017-Jul-15 20:30N 60°28' E 026°57'0 0.0
2017-Jul-15 19:59N 60°28' E 026°57'0 0.0
2017-Jul-15 19:29N 60°28' E 026°57'0 0.0
2017-Jul-15 18:59N 60°28' E 026°57'0 0.0
2017-Jul-15 18:26N 60°28' E 026°57'0 0.0
2017-Jul-15 17:59N 60°28' E 026°57'0 0.0
2017-Jul-15 17:29N 60°28' E 026°57'0 0.0
2017-Jul-15 16:59N 60°28' E 026°57'0 0.0
2017-Jul-15 16:29N 60°28' E 026°57'0 0.0
2017-Jul-15 15:59N 60°28' E 026°57'0 0.0
2017-Jul-15 15:29N 60°28' E 026°57'0 0.0
2017-Jul-15 14:59N 60°28' E 026°57'0 0.0
2017-Jul-15 13:59N 60°28' E 026°57'0 0.0
2017-Jul-15 13:29N 60°28' E 026°57'0 0.0
2017-Jul-15 12:59N 60°28' E 026°57'0 0.0
2017-Jul-15 12:29N 60°28' E 026°57'0 0.0
2017-Jul-15 11:59N 60°28' E 026°57'0 0.0
2017-Jul-15 11:29N 60°28' E 026°57'0 0.0
2017-Jul-15 10:59N 60°28' E 026°57'0 0.0
2017-Jul-15 10:29N 60°28' E 026°57'0 0.0
2017-Jul-15 09:56N 60°28' E 026°57'0 0.0
2017-Jul-15 09:29N 60°28' E 026°57'0 0.0
2017-Jul-15 08:59N 60°28' E 026°57'0 0.0
2017-Jul-15 08:29N 60°28' E 026°57'0 0.0
2017-Jul-15 07:59N 60°28' E 026°57'0 0.0
2017-Jul-15 07:29N 60°28' E 026°57'0 0.0
2017-Jul-15 06:59N 60°28' E 026°57'0 0.0
2017-Jul-15 06:29N 60°28' E 026°57'0 0.0
2017-Jul-15 05:59N 60°28' E 026°57'0 0.0
2017-Jul-15 05:29N 60°28' E 026°57'0 0.0
2017-Jul-15 04:59N 60°28' E 026°57'0 0.0
2017-Jul-15 04:29N 60°28' E 026°57'0 0.0
2017-Jul-15 03:59N 60°28' E 026°57'0 0.0
2017-Jul-15 03:29N 60°28' E 026°57'0 0.0
2017-Jul-15 02:59N 60°28' E 026°57'0 0.0
2017-Jul-15 02:29N 60°28' E 026°57'0 0.0
2017-Jul-15 01:59N 60°28' E 026°57'0 0.0
2017-Jul-15 01:29N 60°28' E 026°57'0 0.0
2017-Jul-15 00:59N 60°28' E 026°57'0 0.0
2017-Jul-15 00:29N 60°28' E 026°57'0 0.0
2017-Jul-14 23:59N 60°28' E 026°57'0 0.0
2017-Jul-14 23:29N 60°28' E 026°57'0 0.0
2017-Jul-14 22:59N 60°28' E 026°57'0 0.0
2017-Jul-14 22:29N 60°28' E 026°57'0 0.0
2017-Jul-14 21:59N 60°28' E 026°57'0 0.0
2017-Jul-14 21:29N 60°28' E 026°57'0 0.0
2017-Jul-14 20:59N 60°28' E 026°57'0 0.0
2017-Jul-14 20:29N 60°28' E 026°57'0 0.0
2017-Jul-14 19:59N 60°28' E 026°57'0 0.0
2017-Jul-14 19:29N 60°28' E 026°57'0 0.0
2017-Jul-14 19:01N 60°28' E 026°57'0 0.0
2017-Jul-14 18:29N 60°28' E 026°57'0 0.0
2017-Jul-14 17:59N 60°28' E 026°57'0 0.0
2017-Jul-14 17:30N 60°28' E 026°57'0 0.0
2017-Jul-14 16:59N 60°28' E 026°57'0 0.0
2017-Jul-14 16:29N 60°28' E 026°57'0 0.0
2017-Jul-14 15:59N 60°28' E 026°57'0 0.0
2017-Jul-14 15:29N 60°28' E 026°57'0 0.0
2017-Jul-14 15:00N 60°28' E 026°57'0 0.0
2017-Jul-14 14:30N 60°28' E 026°57'0 0.0
2017-Jul-14 13:59N 60°28' E 026°57'0 0.0
2017-Jul-14 13:29N 60°28' E 026°57'0 0.0
2017-Jul-14 12:59N 60°28' E 026°57'0 0.0
2017-Jul-14 12:30N 60°28' E 026°57'0 0.0
2017-Jul-14 11:59N 60°28' E 026°57'0 0.0
2017-Jul-14 11:29N 60°28' E 026°57'0 0.0
2017-Jul-14 11:00N 60°28' E 026°57'0 0.0
2017-Jul-14 10:30N 60°28' E 026°57'0 0.0
2017-Jul-14 10:00N 60°28' E 026°57'0 0.0
2017-Jul-14 09:30N 60°28' E 026°57'0 0.0
2017-Jul-14 09:00N 60°28' E 026°57'0 0.0
2017-Jul-14 08:29N 60°28' E 026°57'0 0.0
2017-Jul-14 07:59N 60°28' E 026°57'0 0.0
2017-Jul-14 07:30N 60°28' E 026°57'0 0.0
2017-Jul-14 07:00N 60°28' E 026°57'0 0.0
2017-Jul-14 06:29N 60°28' E 026°57'0 0.0
2017-Jul-14 05:59N 60°28' E 026°57'0 0.0
2017-Jul-14 05:29N 60°28' E 026°57'0 0.0
2017-Jul-14 04:59N 60°28' E 026°57'0 0.0
2017-Jul-14 04:30N 60°28' E 026°57'0 0.0
2017-Jul-14 03:59N 60°28' E 026°57'0 0.0
2017-Jul-14 03:29N 60°28' E 026°57'0 0.0
2017-Jul-14 02:59N 60°28' E 026°57'0 0.0
2017-Jul-14 02:30N 60°28' E 026°57'0 0.0
2017-Jul-14 01:59N 60°28' E 026°57'0 0.0
2017-Jul-14 01:29N 60°28' E 026°57'0 0.0
2017-Jul-14 00:59N 60°28' E 026°57'  

Dump ship's entire track history